GCHI/VDE METAR and TAF weather

Enter ICAO airport designator
Station Type Date Time Source
GCHI METAR 2021/08/05 05:30 UTC NOAA

GCHI 050530Z AUTO 35017KT 9999 FEW016 BKN021 22/18 Q1020


Station Type Date Time Source
GCHI Decoded METAR 2021/08/05 05:30 UTC NOAA

Hierro / Aeropuerto, Spain (GCHI) 27-49N 017-53W 32M
Aug 05, 2021 - 01:30 AM EDT / 2021.08.05 0530 UTC
Wind: from the N (350 degrees) at 20 MPH (17 KT):0
Visibility: greater than 7 mile(s):0
Sky conditions: mostly cloudy
Temperature: 71 F (22 C)
Dew Point: 64 F (18 C)
Relative Humidity: 78%
Pressure (altimeter): 30.12 in. Hg (1020 hPa)
ob: GCHI 050530Z AUTO 35017KT 9999 FEW016 BKN021 22/18 Q1020
cycle: 5

Station Type Date Time Source
GCHI TAF 2021/08/05 03:00 UTC NOAA

TAF GCHI 050200Z 0503/0603 36017KT 9999 BKN017 TX25/0514Z TN22/0506Z

Example: see airport list